createdAt,value
2022-07-27T00:01:22.019Z,100985.16
2022-07-27T00:03:48.661Z,100982.56
2022-07-27T00:06:15.367Z,100973.69
2022-07-27T00:08:41.896Z,100979.06
2022-07-27T00:11:08.881Z,100983.84
2022-07-27T00:13:35.329Z,100987.41
2022-07-27T00:16:01.972Z,100990.25
2022-07-27T00:18:28.530Z,100990.75
2022-07-27T00:20:55.069Z,100992.81
2022-07-27T00:23:21.539Z,100992.34
2022-07-27T00:25:47.993Z,100986.66
2022-07-27T00:28:14.464Z,100979.00
2022-07-27T00:30:40.939Z,100981.66
2022-07-27T00:33:07.437Z,100986.94
2022-07-27T00:35:33.956Z,100987.00
2022-07-27T00:38:02.247Z,100986.13
2022-07-27T00:40:28.687Z,100982.72
2022-07-27T00:42:55.189Z,100981.25
2022-07-27T00:45:21.627Z,100988.94
2022-07-27T00:47:53.087Z,100979.94
2022-07-27T00:50:21.369Z,100991.63
2022-07-27T00:52:47.861Z,100996.06
2022-07-27T00:55:14.314Z,100989.31
2022-07-27T00:57:59.038Z,100986.13
2022-07-27T01:00:29.595Z,100976.47
2022-07-27T01:02:57.306Z,100989.53
2022-07-27T01:05:24.460Z,100981.28
2022-07-27T01:08:02.782Z,100981.41
2022-07-27T01:10:29.218Z,100982.84
2022-07-27T01:12:55.655Z,100984.97
2022-07-27T01:15:22.293Z,100981.13
2022-07-27T01:17:48.730Z,100986.69
2022-07-27T01:20:15.245Z,100987.09
2022-07-27T01:22:42.168Z,100988.09
2022-07-27T01:25:10.088Z,100988.28
2022-07-27T01:27:36.922Z,100985.31
2022-07-27T01:30:24.191Z,100987.03
2022-07-27T01:32:50.891Z,100987.66
2022-07-27T01:35:17.405Z,100989.63
2022-07-27T01:37:48.054Z,100985.59
2022-07-27T01:40:14.841Z,100977.16
2022-07-27T01:42:41.293Z,100984.09
2022-07-27T01:45:08.686Z,100976.44
2022-07-27T01:47:35.195Z,100973.59
2022-07-27T01:50:02.174Z,100987.78
2022-07-27T01:52:28.740Z,100984.72
2022-07-27T01:54:55.174Z,100978.88
2022-07-27T01:57:21.636Z,100984.97
2022-07-27T01:59:48.068Z,100988.41
2022-07-27T02:02:16.109Z,100983.06
2022-07-27T02:04:42.806Z,100987.28
2022-07-27T02:07:09.268Z,100988.72
2022-07-27T02:09:35.733Z,100975.38
2022-07-27T02:12:20.743Z,100991.19
2022-07-27T02:14:47.182Z,100979.88
2022-07-27T02:17:13.636Z,100984.44
2022-07-27T02:19:41.544Z,100977.28
2022-07-27T02:22:08.898Z,100968.47
2022-07-27T02:24:37.785Z,100971.09
2022-07-27T02:27:04.407Z,100963.28
2022-07-27T02:29:30.931Z,100969.19
2022-07-27T02:31:57.399Z,100970.16
2022-07-27T02:34:23.828Z,100970.53
2022-07-27T02:36:50.257Z,100974.69
2022-07-27T02:39:16.704Z,100974.53
2022-07-27T02:41:44.893Z,100971.78
2022-07-27T02:44:11.397Z,100970.16
2022-07-27T02:46:37.862Z,100965.72
2022-07-27T02:49:04.391Z,100968.31
2022-07-27T02:51:31.075Z,100966.97
2022-07-27T02:53:57.534Z,100966.84
2022-07-27T02:56:26.878Z,100974.59
2022-07-27T02:58:53.919Z,100977.41
2022-07-27T03:01:20.446Z,100969.53
2022-07-27T03:03:47.279Z,100967.56
2022-07-27T03:06:13.940Z,100965.81
2022-07-27T03:08:40.469Z,100969.38
2022-07-27T03:11:08.430Z,100974.81
2022-07-27T03:13:34.873Z,100968.34
2022-07-27T03:16:01.528Z,100965.03
2022-07-27T03:18:28.111Z,100959.75
2022-07-27T03:20:54.578Z,100970.31
2022-07-27T03:23:21.507Z,100978.28
2022-07-27T03:25:48.361Z,100971.91
2022-07-27T03:28:14.829Z,100970.31
2022-07-27T03:30:41.344Z,100977.53
2022-07-27T03:33:07.866Z,100974.94
2022-07-27T03:35:34.368Z,100965.13
2022-07-27T03:38:00.811Z,100972.94
2022-07-27T03:40:29.466Z,100969.38
2022-07-27T03:42:56.182Z,100970.53
2022-07-27T03:45:22.636Z,100974.94
2022-07-27T03:47:49.079Z,100983.25
2022-07-27T03:50:15.532Z,100981.44
2022-07-27T03:52:45.664Z,100983.25
2022-07-27T03:55:12.414Z,100982.22
2022-07-27T03:57:38.844Z,100977.66
2022-07-27T04:00:06.778Z,100978.50
2022-07-27T04:02:33.328Z,100985.50
2022-07-27T04:04:59.933Z,100980.88
2022-07-27T04:07:26.429Z,100971.09
2022-07-27T04:09:52.909Z,100972.59
2022-07-27T04:12:19.931Z,100970.88
2022-07-27T04:14:46.616Z,100973.72
2022-07-27T04:17:13.087Z,100974.06
2022-07-27T04:19:59.548Z,100975.06
2022-07-27T04:22:26.286Z,100970.34
2022-07-27T04:24:52.723Z,100968.94
2022-07-27T04:27:19.270Z,100976.03
2022-07-27T04:29:45.698Z,100964.00
2022-07-27T04:32:12.155Z,100972.84
2022-07-27T04:34:38.604Z,100968.13
2022-07-27T04:37:05.865Z,100967.41
2022-07-27T04:39:32.321Z,100973.06
2022-07-27T04:41:58.757Z,100973.53
2022-07-27T04:44:25.556Z,100957.91
2022-07-27T04:46:52.090Z,100973.09
2022-07-27T04:49:18.619Z,100967.41
2022-07-27T04:51:45.295Z,100968.81
2022-07-27T04:54:12.360Z,100964.94
2022-07-27T04:56:38.883Z,100967.78
2022-07-27T04:59:05.374Z,100969.78
2022-07-27T05:01:35.114Z,100963.44
2022-07-27T05:04:04.011Z,100962.28
2022-07-27T05:06:32.848Z,100964.59
2022-07-27T05:08:59.558Z,100966.75
2022-07-27T05:11:26.027Z,100957.81
2022-07-27T05:13:52.522Z,100962.50
2022-07-27T05:16:18.967Z,100964.78
2022-07-27T05:18:46.084Z,100969.00
2022-07-27T05:21:12.531Z,100976.97
2022-07-27T05:23:38.986Z,100981.25
2022-07-27T05:26:05.488Z,100985.81
2022-07-27T05:28:32.278Z,100989.13
2022-07-27T05:30:58.872Z,100985.50
2022-07-27T05:33:25.531Z,100979.59
2022-07-27T05:35:52.030Z,100987.41
2022-07-27T05:38:18.464Z,100999.78
2022-07-27T05:40:45.774Z,101004.88
2022-07-27T05:43:12.291Z,101006.69
2022-07-27T05:45:38.824Z,101015.28
2022-07-27T05:48:05.635Z,101013.47
2022-07-27T05:50:32.110Z,101015.81
2022-07-27T05:53:00.518Z,101020.22
2022-07-27T05:55:27.158Z,101028.28
2022-07-27T05:57:53.638Z,101023.16
2022-07-27T06:00:20.109Z,101036.31
2022-07-27T06:02:46.585Z,101032.44
2022-07-27T06:05:15.877Z,101036.88
2022-07-27T06:07:59.240Z,101037.53
2022-07-27T06:10:27.396Z,101047.44
2022-07-27T06:12:53.894Z,101060.53
2022-07-27T06:15:20.337Z,101066.97
2022-07-27T06:17:48.966Z,101067.88
2022-07-27T06:20:15.415Z,101076.16
2022-07-27T06:23:00.818Z,101076.25
2022-07-27T06:25:34.081Z,101066.97
2022-07-27T06:28:02.316Z,101082.56
2022-07-27T06:30:28.965Z,101081.78
2022-07-27T06:32:55.466Z,101077.81
2022-07-27T06:35:23.222Z,101075.72
2022-07-27T06:37:53.123Z,101080.94
2022-07-27T06:40:20.055Z,101085.25
2022-07-27T06:42:46.580Z,101092.94
2022-07-27T06:45:13.061Z,101095.25
2022-07-27T06:47:48.968Z,101097.81
2022-07-27T06:50:20.309Z,101097.56
2022-07-27T06:52:49.566Z,101098.31
2022-07-27T06:55:16.260Z,101105.63
2022-07-27T06:57:43.143Z,101100.66
2022-07-27T07:00:10.359Z,101095.22
2022-07-27T07:02:36.831Z,101099.22
2022-07-27T07:05:04.106Z,101096.56
2022-07-27T07:07:31.715Z,101096.34
2022-07-27T07:09:58.200Z,101091.94
2022-07-27T07:12:25.628Z,101090.66
2022-07-27T07:14:52.100Z,101098.31
2022-07-27T07:17:18.593Z,101091.84
2022-07-27T07:19:46.462Z,101086.66
2022-07-27T07:22:12.941Z,101084.31
2022-07-27T07:24:39.448Z,101088.06
2022-07-27T07:27:05.983Z,101080.94
2022-07-27T07:29:32.407Z,101077.63
2022-07-27T07:31:58.886Z,101085.94
2022-07-27T07:34:25.406Z,101089.75
2022-07-27T07:36:51.854Z,101083.56
2022-07-27T07:39:18.353Z,101088.47
2022-07-27T07:41:44.812Z,101083.03
2022-07-27T07:44:11.257Z,101089.19
2022-07-27T07:46:37.871Z,101087.41
2022-07-27T07:49:05.034Z,101088.34
2022-07-27T07:51:32.094Z,101088.34
2022-07-27T07:53:58.666Z,101093.34
2022-07-27T07:56:25.111Z,101082.66
2022-07-27T07:58:51.654Z,101091.06
2022-07-27T08:01:18.159Z,101091.41
2022-07-27T08:03:50.280Z,101083.84
2022-07-27T08:06:17.228Z,101085.56
2022-07-27T08:08:43.711Z,101097.19
2022-07-27T08:11:10.447Z,101099.84
2022-07-27T08:13:36.931Z,101099.06
2022-07-27T08:16:03.552Z,101094.19
2022-07-27T08:18:30.124Z,101091.44
2022-07-27T08:20:56.621Z,101099.06
2022-07-27T08:23:23.147Z,101096.63
2022-07-27T08:25:49.705Z,101098.13
2022-07-27T08:28:16.184Z,101093.03
2022-07-27T08:30:42.734Z,101095.16
2022-07-27T08:33:09.798Z,101092.25
2022-07-27T08:35:36.317Z,101096.75
2022-07-27T08:38:04.888Z,101092.75
2022-07-27T08:40:47.534Z,101081.38
2022-07-27T08:43:24.893Z,101084.97
2022-07-27T08:45:56.388Z,101086.09
2022-07-27T08:48:24.864Z,101071.47
2022-07-27T08:50:51.685Z,101074.38
2022-07-27T08:53:18.515Z,101080.06
2022-07-27T08:55:45.785Z,101076.59
2022-07-27T08:58:12.482Z,101087.69
2022-07-27T09:00:40.564Z,101092.69
2022-07-27T09:03:07.205Z,101089.97
2022-07-27T09:05:37.691Z,101094.84
2022-07-27T09:08:15.548Z,101075.97
2022-07-27T09:10:42.322Z,101069.00
2022-07-27T09:13:21.159Z,101067.81
2022-07-27T09:16:16.394Z,101069.44
2022-07-27T09:18:37.497Z,101076.41
2022-07-27T09:21:20.910Z,101082.06
2022-07-27T09:23:50.159Z,101087.19
2022-07-27T09:26:32.418Z,101095.44
2022-07-27T09:29:00.932Z,101083.91
2022-07-27T09:31:27.475Z,101078.34
2022-07-27T09:33:55.416Z,101065.22
2022-07-27T09:36:23.091Z,101069.44
2022-07-27T09:39:05.409Z,101068.34
2022-07-27T09:41:46.212Z,101060.22
2022-07-27T09:47:03.696Z,101074.75
2022-07-27T09:49:30.925Z,101075.66
2022-07-27T09:52:01.112Z,101076.13
2022-07-27T09:54:41.064Z,101062.75
2022-07-27T09:57:08.948Z,101064.91
2022-07-27T09:59:35.386Z,101059.38
2022-07-27T10:02:01.969Z,101051.13
2022-07-27T10:04:28.547Z,101038.41
2022-07-27T10:07:04.664Z,101043.50
2022-07-27T10:09:32.222Z,101040.91
2022-07-27T10:11:58.744Z,101054.63
2022-07-27T10:14:25.732Z,101059.44
2022-07-27T10:16:52.492Z,101063.38
2022-07-27T10:19:24.007Z,101065.91
2022-07-27T10:21:50.575Z,101054.81
2022-07-27T10:24:28.969Z,101055.66
2022-07-27T10:26:55.650Z,101051.19
2022-07-27T10:29:22.853Z,101046.88
2022-07-27T10:31:52.428Z,101049.09
2022-07-27T10:34:33.659Z,101051.41
2022-07-27T10:37:07.831Z,101057.00
2022-07-27T10:39:36.360Z,101044.53
2022-07-27T10:42:29.740Z,101049.88
2022-07-27T10:45:08.525Z,101043.38
2022-07-27T10:47:37.748Z,101036.41
2022-07-27T10:50:16.657Z,101050.41
2022-07-27T10:52:51.143Z,101043.00
2022-07-27T10:55:30.305Z,101024.63
2022-07-27T10:57:57.888Z,101042.03
2022-07-27T11:00:53.949Z,101046.31
2022-07-27T11:03:24.791Z,101041.72
2022-07-27T11:06:06.721Z,101038.91
2022-07-27T11:08:48.479Z,101033.41
2022-07-27T11:11:20.760Z,101040.06
2022-07-27T11:13:49.574Z,101029.28
2022-07-27T11:16:25.841Z,101033.44
2022-07-27T11:18:54.303Z,101037.75
2022-07-27T11:21:26.233Z,101039.63
2022-07-27T11:23:58.389Z,101042.22
2022-07-27T11:26:26.618Z,101045.75
2022-07-27T11:28:53.250Z,101037.75
2022-07-27T11:31:32.729Z,101026.13
2022-07-27T11:34:06.699Z,101027.16
2022-07-27T11:36:44.131Z,101031.66
2022-07-27T11:39:19.730Z,101029.91
2022-07-27T11:42:08.639Z,101018.41
2022-07-27T11:44:39.927Z,101021.03
2022-07-27T11:47:07.396Z,101010.72
2022-07-27T11:49:33.927Z,101020.94
2022-07-27T11:52:07.381Z,101026.38
2022-07-27T11:54:35.714Z,101021.28
2022-07-27T11:57:06.316Z,101009.97
2022-07-27T11:59:59.136Z,101007.72
2022-07-27T12:02:27.138Z,101008.19
2022-07-27T12:04:57.883Z,101010.66
2022-07-27T12:07:29.894Z,101014.63
2022-07-27T12:10:02.030Z,101011.13
2022-07-27T12:12:29.375Z,101005.47
2022-07-27T12:14:58.874Z,101010.53
2022-07-27T12:17:28.255Z,101009.53
2022-07-27T12:20:14.197Z,101015.31
2022-07-27T12:22:48.873Z,101018.47
2022-07-27T12:25:18.385Z,101017.91
2022-07-27T12:28:04.598Z,101011.25
2022-07-27T12:30:38.850Z,101017.59
2022-07-27T12:33:07.461Z,101014.09
2022-07-27T12:35:45.921Z,101011.75
2022-07-27T12:38:13.317Z,101010.50
2022-07-27T12:40:50.811Z,101006.47
2022-07-27T12:43:18.595Z,101004.38
2022-07-27T12:45:45.190Z,101009.41
2022-07-27T12:48:19.669Z,101021.63
2022-07-27T12:50:48.445Z,101028.47
2022-07-27T12:53:15.901Z,101013.31
2022-07-27T12:55:42.838Z,101013.88
2022-07-27T12:58:10.340Z,101011.44
2022-07-27T13:00:37.336Z,101014.31
2022-07-27T13:03:04.607Z,101011.78
2022-07-27T13:05:31.747Z,101005.63
2022-07-27T13:07:59.050Z,101016.34
2022-07-27T13:10:26.387Z,101018.25
2022-07-27T13:12:52.857Z,101004.56
2022-07-27T13:15:19.815Z,101006.84
2022-07-27T13:17:46.753Z,101025.59
2022-07-27T13:20:14.099Z,101020.31
2022-07-27T13:22:40.880Z,101023.56
2022-07-27T13:25:16.425Z,101024.00
2022-07-27T13:27:44.492Z,101029.94
2022-07-27T13:30:11.388Z,101022.09
2022-07-27T13:32:38.128Z,101017.03
2022-07-27T13:35:05.335Z,101017.50
2022-07-27T13:37:31.793Z,101016.03
2022-07-27T13:40:00.313Z,101027.00
2022-07-27T13:42:26.790Z,101008.47
2022-07-27T13:45:08.159Z,101018.78
2022-07-27T13:47:35.573Z,101013.13
2022-07-27T13:50:02.158Z,101021.31
2022-07-27T13:52:28.653Z,101008.75
2022-07-27T13:54:55.347Z,101024.50
2022-07-27T13:57:21.801Z,101031.13
2022-07-27T13:59:48.246Z,101028.72
2022-07-27T14:02:15.044Z,101018.00
2022-07-27T14:04:43.859Z,101014.94
2022-07-27T14:07:11.399Z,101016.72
2022-07-27T14:09:56.487Z,101011.41
2022-07-27T14:12:22.955Z,101007.72
2022-07-27T14:14:49.385Z,101016.88
2022-07-27T14:17:15.837Z,101003.19
2022-07-27T14:19:42.316Z,101003.34
2022-07-27T14:22:11.364Z,101013.31
2022-07-27T14:24:38.672Z,101016.81
2022-07-27T14:27:06.469Z,101017.31
2022-07-27T14:29:33.802Z,101016.25
2022-07-27T14:32:00.427Z,101014.31
2022-07-27T14:34:26.976Z,101013.13
2022-07-27T14:36:53.586Z,101005.59
2022-07-27T14:39:20.083Z,101000.00
2022-07-27T14:41:46.813Z,101013.47
2022-07-27T14:44:14.029Z,101004.56
2022-07-27T14:46:40.667Z,101008.56
2022-07-27T14:49:08.555Z,101001.31
2022-07-27T14:51:35.640Z,100992.38
2022-07-27T14:54:03.635Z,100996.38
2022-07-27T14:56:30.098Z,101003.97
2022-07-27T14:58:56.581Z,101004.66
2022-07-27T15:01:23.211Z,101010.47
2022-07-27T15:03:49.756Z,101012.16
2022-07-27T15:06:16.277Z,101002.97
2022-07-27T15:08:42.750Z,101014.69
2022-07-27T15:11:09.873Z,101018.22
2022-07-27T15:13:36.360Z,101015.34
2022-07-27T15:16:03.441Z,101010.84
2022-07-27T15:18:36.476Z,101003.50
2022-07-27T15:21:06.734Z,100999.59
2022-07-27T15:23:39.726Z,101005.91
2022-07-27T15:26:06.266Z,101009.03
2022-07-27T15:28:32.824Z,101005.50
2022-07-27T15:30:59.439Z,101002.13
2022-07-27T15:33:26.745Z,100993.81
2022-07-27T15:35:53.401Z,101003.09
2022-07-27T15:38:19.929Z,101005.53
2022-07-27T15:40:47.382Z,101006.31
2022-07-27T15:43:15.583Z,101006.00
2022-07-27T15:45:43.524Z,101013.47
2022-07-27T15:48:10.607Z,100998.53
2022-07-27T15:50:37.760Z,101003.97
2022-07-27T15:53:04.305Z,100998.38
2022-07-27T15:55:30.707Z,101010.44
2022-07-27T15:57:57.679Z,101001.31
2022-07-27T16:00:25.743Z,101007.00
2022-07-27T16:02:52.402Z,101002.09
2022-07-27T16:05:20.335Z,101015.94
2022-07-27T16:07:46.806Z,101010.44
2022-07-27T16:10:13.246Z,101010.75
2022-07-27T16:12:39.787Z,101016.75
2022-07-27T16:15:06.992Z,101001.06
2022-07-27T16:17:33.439Z,100997.72
2022-07-27T16:20:00.038Z,100995.06
2022-07-27T16:22:26.828Z,101012.34
2022-07-27T16:24:53.300Z,101011.63
2022-07-27T16:27:19.812Z,101013.38
2022-07-27T16:29:47.033Z,101014.63
2022-07-27T16:32:13.628Z,101001.16
2022-07-27T16:34:40.089Z,101007.34
2022-07-27T16:37:06.739Z,101003.72
2022-07-27T16:39:35.071Z,101001.59
2022-07-27T16:42:01.580Z,101002.22
2022-07-27T16:44:28.122Z,100998.59
2022-07-27T16:46:54.721Z,100991.94
2022-07-27T16:49:21.478Z,101001.28
2022-07-27T16:51:59.971Z,100997.31
2022-07-27T16:54:26.506Z,101005.09
2022-07-27T16:56:53.584Z,101004.75
2022-07-27T16:59:20.212Z,101005.16
2022-07-27T17:01:46.723Z,101002.28
2022-07-27T17:04:13.355Z,100997.47
2022-07-27T17:06:39.918Z,101004.03
2022-07-27T17:09:06.418Z,101002.81
2022-07-27T17:11:37.152Z,100996.59
2022-07-27T17:14:06.287Z,101005.38
2022-07-27T17:16:33.348Z,100995.97
2022-07-27T17:18:59.940Z,100995.16
2022-07-27T17:21:26.466Z,101000.75
2022-07-27T17:23:52.876Z,100994.09
2022-07-27T17:26:19.560Z,100993.47
2022-07-27T17:28:49.527Z,101005.78
2022-07-27T17:31:18.706Z,101005.81
2022-07-27T17:33:45.298Z,101006.66
2022-07-27T17:36:15.445Z,101001.75
2022-07-27T17:38:46.245Z,101003.34
2022-07-27T17:41:13.428Z,100999.06
2022-07-27T17:43:39.963Z,101006.38
2022-07-27T17:46:07.679Z,101001.81
2022-07-27T17:48:36.275Z,101005.81
2022-07-27T17:51:07.109Z,100997.53
2022-07-27T17:53:34.334Z,101001.63
2022-07-27T17:56:03.105Z,101002.25
2022-07-27T17:58:30.612Z,100998.06
2022-07-27T18:00:57.494Z,100994.19
2022-07-27T18:03:24.096Z,101009.34
2022-07-27T18:05:50.649Z,101004.19
2022-07-27T18:08:17.237Z,101004.41
2022-07-27T18:10:43.915Z,101013.34
2022-07-27T18:13:10.546Z,101013.94
2022-07-27T18:15:54.668Z,101010.72
2022-07-27T18:18:25.224Z,101007.09
2022-07-27T18:20:53.138Z,101010.94
2022-07-27T18:23:20.509Z,101010.00
2022-07-27T18:25:47.128Z,101017.22
2022-07-27T18:28:18.760Z,101011.47
2022-07-27T18:30:46.170Z,101014.81
2022-07-27T18:33:17.046Z,101009.00
2022-07-27T18:35:44.750Z,101008.81
2022-07-27T18:38:11.923Z,101010.06
2022-07-27T18:40:39.179Z,101013.38
2022-07-27T18:43:06.565Z,101004.97
2022-07-27T18:45:34.667Z,101008.44
2022-07-27T18:48:01.488Z,101012.22
2022-07-27T18:50:27.997Z,101014.50
2022-07-27T18:52:54.467Z,101011.66
2022-07-27T18:55:24.982Z,101030.84
2022-07-27T18:57:52.707Z,101026.06
2022-07-27T19:00:22.505Z,101028.91
2022-07-27T19:02:51.274Z,101028.91
2022-07-27T19:05:40.607Z,101033.97
2022-07-27T19:08:12.869Z,101028.31
2022-07-27T19:10:44.191Z,101032.28
2022-07-27T19:13:12.479Z,101038.63
2022-07-27T19:15:39.613Z,101043.88
2022-07-27T19:18:06.628Z,101042.78
2022-07-27T19:20:33.437Z,101050.00
2022-07-27T19:23:00.709Z,101045.00
2022-07-27T19:25:27.306Z,101048.97
2022-07-27T19:27:53.781Z,101056.53
2022-07-27T19:30:20.288Z,101054.22
2022-07-27T19:32:46.918Z,101062.53
2022-07-27T19:35:13.492Z,101064.94
2022-07-27T19:37:40.088Z,101074.34
2022-07-27T19:40:33.471Z,101066.22
2022-07-27T19:42:54.387Z,101076.50
2022-07-27T19:45:20.962Z,101075.97
2022-07-27T19:47:47.572Z,101078.63
2022-07-27T19:50:14.122Z,101079.13
2022-07-27T19:52:41.014Z,101092.50
2022-07-27T19:55:07.909Z,101086.47
2022-07-27T19:57:34.602Z,101099.13
2022-07-27T20:00:02.714Z,101101.03
2022-07-27T20:02:29.323Z,101097.28
2022-07-27T20:04:55.934Z,101093.13
2022-07-27T20:07:22.671Z,101104.91
2022-07-27T20:09:49.291Z,101103.53
2022-07-27T20:12:15.880Z,101121.25
2022-07-27T20:14:42.481Z,101109.13
2022-07-27T20:17:09.167Z,101103.53
2022-07-27T20:19:35.714Z,101104.69
2022-07-27T20:22:02.310Z,101104.53
2022-07-27T20:24:29.427Z,101118.03
2022-07-27T20:26:56.632Z,101121.09
2022-07-27T20:29:23.400Z,101122.19
2022-07-27T20:31:50.192Z,101127.19
2022-07-27T20:34:19.237Z,101130.09
2022-07-27T20:36:45.848Z,101125.47
2022-07-27T20:39:17.201Z,101127.13
2022-07-27T20:41:44.076Z,101125.84
2022-07-27T20:44:10.677Z,101133.88
2022-07-27T20:46:37.214Z,101134.25
2022-07-27T20:49:04.353Z,101132.31
2022-07-27T20:51:30.947Z,101140.63
2022-07-27T20:53:58.295Z,101142.22
2022-07-27T20:56:24.866Z,101139.06
2022-07-27T20:58:51.813Z,101149.66
2022-07-27T21:01:18.493Z,101148.22
2022-07-27T21:03:45.053Z,101152.22
2022-07-27T21:06:11.600Z,101158.06
2022-07-27T21:08:41.585Z,101160.31
2022-07-27T21:11:11.043Z,101157.69
2022-07-27T21:13:37.642Z,101158.75
2022-07-27T21:16:04.497Z,101161.38
2022-07-27T21:18:31.126Z,101166.38
2022-07-27T21:20:57.691Z,101173.63
2022-07-27T21:23:42.853Z,101175.59
2022-07-27T21:26:09.364Z,101175.72
2022-07-27T21:28:36.087Z,101190.84
2022-07-27T21:31:02.959Z,101186.72
2022-07-27T21:33:29.512Z,101185.13
2022-07-27T21:35:56.151Z,101190.47
2022-07-27T21:38:22.669Z,101192.94
2022-07-27T21:40:49.525Z,101192.53
2022-07-27T21:43:16.092Z,101190.03
2022-07-27T21:45:49.683Z,101188.97
2022-07-27T21:48:16.429Z,101184.69
2022-07-27T21:50:43.005Z,101191.19
2022-07-27T21:53:09.609Z,101197.44
2022-07-27T21:55:38.332Z,101195.16
2022-07-27T21:58:04.924Z,101201.78
2022-07-27T22:00:31.372Z,101201.72
2022-07-27T22:02:57.858Z,101209.56
2022-07-27T22:05:24.529Z,101199.97
2022-07-27T22:07:51.516Z,101197.53
2022-07-27T22:10:18.605Z,101206.38
2022-07-27T22:12:45.281Z,101196.16
2022-07-27T22:15:11.764Z,101201.66
2022-07-27T22:17:50.352Z,101202.03
2022-07-27T22:20:18.039Z,101201.88
2022-07-27T22:22:44.678Z,101206.78
2022-07-27T22:25:11.219Z,101203.63
2022-07-27T22:27:37.677Z,101210.69
2022-07-27T22:30:04.968Z,101204.50
2022-07-27T22:32:31.409Z,101206.88
2022-07-27T22:34:57.937Z,101207.16
2022-07-27T22:37:24.463Z,101211.63
2022-07-27T22:39:50.959Z,101207.03
2022-07-27T22:42:17.395Z,101213.50
2022-07-27T22:44:43.959Z,101219.56
2022-07-27T22:47:10.693Z,101216.34
2022-07-27T22:49:37.214Z,101219.31
2022-07-27T22:52:07.069Z,101227.16
2022-07-27T22:54:37.304Z,101231.06
2022-07-27T22:57:06.871Z,101221.97
2022-07-27T22:59:34.030Z,101222.22
2022-07-27T23:02:00.909Z,101225.94
2022-07-27T23:04:27.452Z,101228.63
2022-07-27T23:06:53.902Z,101225.28
2022-07-27T23:09:20.381Z,101227.22
2022-07-27T23:11:46.851Z,101227.38
2022-07-27T23:14:13.761Z,101225.03
2022-07-27T23:16:41.038Z,101230.41
2022-07-27T23:19:07.589Z,101229.75
2022-07-27T23:21:34.093Z,101228.19
2022-07-27T23:24:03.049Z,101227.59
2022-07-27T23:26:31.365Z,101231.25
2022-07-27T23:28:58.338Z,101234.91
2022-07-27T23:31:25.976Z,101235.09
2022-07-27T23:33:52.557Z,101230.03
2022-07-27T23:36:19.064Z,101226.69
2022-07-27T23:38:45.514Z,101226.88
2022-07-27T23:41:11.966Z,101234.31
2022-07-27T23:43:38.628Z,101231.06
2022-07-27T23:46:06.620Z,101239.91
2022-07-27T23:48:33.270Z,101235.53
2022-07-27T23:50:59.741Z,101227.59
2022-07-27T23:53:27.091Z,101235.72
2022-07-27T23:55:53.587Z,101243.91
2022-07-27T23:58:20.253Z,101246.94
